Terminal Aerodrome Forecast
Issued by NWS

Home | Current Version | Previous Version | Graphics & Text | Print | Product List | Glossary On
Versions: 1 2 3 4 5 6 7 8 9 10 11 12 13 14 15 16 17 18 19 20
000
FTUS43 KICT 291100
TAFSLN
TAF
KSLN 291120Z 2912/3012 14005KT P6SM SKC
     FM291600 17012KT P6SM BKN060
     FM300100 13007KT P6SM SCT060
     FM300900 15010KT P6SM VCTS SCT060CB BKN100=

USA.gov is the U.S. government's official web portal to all federal, state and local government web resources and services.